Time;durP1;ratioP1;P1;durP2;ratioP2;P2;SDS_P1;SDS_P2;PMS_P1;PMS_P2;Temp;Humidity;BMP_temperature;BMP_pressure;BME280_temperature;BME280_humidity;BME280_pressure;Samples;Min_cycle;Max_cycle;Signal;HPM_P1;HPM_P2
2023/05/06 00:02:05;;;;;;;9.38;3.78;;;28.60;31.20;;;;;;5016997;28;20453;-65
2023/05/06 00:04:33;;;;;;;21.73;1.60;;;28.40;31.20;;;;;;5020839;28;20101;-69
2023/05/06 00:06:59;;;;;;;13.18;1.65;;;28.40;31.20;;;;;;5024822;28;20125;-66
2023/05/06 00:09:26;;;;;;;5.55;1.25;;;28.40;31.40;;;;;;5019303;28;20057;-68
2023/05/06 00:11:53;;;;;;;4.30;0.90;;;28.50;31.20;;;;;;5020259;28;20128;-69
2023/05/06 00:14:19;;;;;;;8.10;1.23;;;28.50;31.30;;;;;;5026002;28;20123;-68
2023/05/06 00:16:46;;;;;;;6.85;1.00;;;28.50;31.50;;;;;;5017603;28;20588;-69
2023/05/06 00:19:12;;;;;;;5.90;1.30;;;28.50;31.30;;;;;;5023495;28;20130;-68
2023/05/06 00:21:39;;;;;;;28.55;2.28;;;28.50;31.60;;;;;;5018790;28;20969;-67
2023/05/06 00:24:06;;;;;;;11.88;2.13;;;28.50;31.70;;;;;;5019144;28;20091;-66
2023/05/06 00:26:32;;;;;;;8.07;1.83;;;28.30;31.50;;;;;;5022011;28;20099;-70
2023/05/06 00:28:58;;;;;;;10.70;2.47;;;28.10;31.80;;;;;;5022902;28;20085;-66
2023/05/06 00:31:25;;;;;;;59.42;9.05;;;28.00;32.00;;;;;;5022263;28;20432;-61
2023/05/06 00:33:51;;;;;;;20.08;3.50;;;27.80;31.60;;;;;;5022178;28;20070;-59
2023/05/06 00:36:17;;;;;;;25.52;3.63;;;27.60;31.50;;;;;;5020242;28;20512;-60
2023/05/06 00:38:44;;;;;;;16.65;1.90;;;27.50;31.90;;;;;;5024899;28;20065;-62
2023/05/06 00:41:10;;;;;;;11.57;1.83;;;27.60;31.90;;;;;;5019219;28;20065;-62
2023/05/06 00:43:37;;;;;;;8.40;2.00;;;27.50;31.60;;;;;;5019667;28;20074;-58
2023/05/06 00:46:04;;;;;;;13.25;2.10;;;27.50;31.20;;;;;;5023328;28;20071;-63
2023/05/06 00:48:31;;;;;;;8.52;1.95;;;27.40;31.00;;;;;;5020332;28;20102;-62
2023/05/06 00:50:57;;;;;;;41.83;3.10;;;27.30;30.90;;;;;;5020394;28;20126;-62
2023/05/06 00:53:24;;;;;;;6.55;1.73;;;27.30;31.20;;;;;;5022032;28;20068;-62
2023/05/06 00:55:50;;;;;;;11.88;1.83;;;27.20;30.90;;;;;;5024287;28;20083;-63
2023/05/06 00:58:18;;;;;;;6.38;1.48;;;27.10;30.60;;;;;;5021753;28;20089;-65
2023/05/06 01:00:45;;;;;;;45.25;4.45;;;26.90;31.40;;;;;;5018943;28;20095;-60
2023/05/06 01:03:11;;;;;;;6.85;2.17;;;26.90;30.70;;;;;;5019995;28;20076;-64
2023/05/06 01:05:57;;;;;;;7.90;2.13;;;26.90;31.00;;;;;;5021319;28;20076;-63
2023/05/06 01:08:36;;;;;;;8.82;1.90;;;26.70;30.90;;;;;;5021363;28;20147;-74
2023/05/06 01:11:15;;;;;;;9.30;1.83;;;26.70;31.60;;;;;;5020217;28;20130;-67
2023/05/06 01:14:01;;;;;;;11.00;2.10;;;26.70;31.80;;;;;;5012387;28;20103;-67
2023/05/06 01:16:29;;;;;;;5.75;1.77;;;26.60;31.30;;;;;;5013504;28;20170;-65
2023/05/06 01:18:59;;;;;;;13.65;2.22;;;26.60;31.00;;;;;;5017758;28;20540;-67
2023/05/06 01:21:33;;;;;;;8.13;1.60;;;26.50;30.10;;;;;;5021825;28;20780;-67
2023/05/06 01:24:00;;;;;;;8.23;2.00;;;26.40;30.80;;;;;;5015216;28;20205;-68
2023/05/06 01:26:27;;;;;;;7.50;2.15;;;26.50;32.70;;;;;;5022643;28;20096;-68
2023/05/06 01:28:54;;;;;;;23.27;2.88;;;26.50;33.30;;;;;;5018445;28;20084;-67
2023/05/06 01:31:36;;;;;;;29.40;3.55;;;26.50;32.50;;;;;;5019918;28;20085;-65
2023/05/06 01:34:12;;;;;;;7.35;2.45;;;26.40;32.90;;;;;;5018887;28;20213;-64
2023/05/06 01:36:52;;;;;;;9.95;2.95;;;26.60;32.90;;;;;;5018837;28;20114;-71
2023/05/06 01:39:25;;;;;;;7.88;2.03;;;26.70;32.40;;;;;;5018716;28;20461;-73
2023/05/06 01:41:56;;;;;;;15.43;2.70;;;26.90;33.00;;;;;;5017051;28;20092;-68
2023/05/06 01:44:22;;;;;;;13.30;2.47;;;26.40;34.00;;;;;;5016959;28;20251;-65
2023/05/06 01:46:50;;;;;;;10.10;1.80;;;26.40;34.80;;;;;;5019866;28;20077;-65
2023/05/06 01:49:19;;;;;;;11.50;1.60;;;26.60;33.50;;;;;;5019090;28;20091;-68
2023/05/06 01:51:52;;;;;;;5.95;1.70;;;26.40;33.50;;;;;;5016286;28;20089;-66
2023/05/06 01:54:18;;;;;;;8.10;2.10;;;26.10;34.40;;;;;;5028170;28;20070;-63
2023/05/06 01:56:45;;;;;;;17.20;14.57;;;25.60;35.40;;;;;;5021501;28;20429;-62
2023/05/06 01:59:11;;;;;;;8.35;2.40;;;25.40;37.10;;;;;;5015402;28;20112;-64
2023/05/06 02:01:38;;;;;;;9.95;2.20;;;25.30;37.80;;;;;;5016715;28;20583;-64
2023/05/06 02:04:04;;;;;;;17.48;2.67;;;25.00;38.20;;;;;;5017050;28;20089;-64
2023/05/06 02:06:31;;;;;;;13.63;1.70;;;24.80;38.50;;;;;;5018620;28;20073;-69
2023/05/06 02:08:57;;;;;;;10.00;2.28;;;24.60;39.50;;;;;;5009096;28;20081;-68
2023/05/06 02:11:24;;;;;;;9.00;2.00;;;24.40;40.40;;;;;;5019064;28;20180;-65
2023/05/06 02:13:50;;;;;;;7.25;1.90;;;24.30;41.10;;;;;;5018954;28;20069;-70
2023/05/06 02:16:17;;;;;;;8.80;2.00;;;24.10;41.60;;;;;;5021820;28;20080;-67
2023/05/06 02:18:44;;;;;;;9.35;2.30;;;24.00;42.00;;;;;;5016038;28;20107;-68
2023/05/06 02:21:11;;;;;;;12.55;2.10;;;23.80;42.30;;;;;;5015133;28;20165;-65
2023/05/06 02:23:37;;;;;;;12.25;2.15;;;23.70;42.90;;;;;;5017563;28;20075;-67
2023/05/06 02:26:04;;;;;;;10.98;2.63;;;23.70;43.30;;;;;;5018690;28;20066;-66
2023/05/06 02:28:30;;;;;;;6.85;1.73;;;23.60;43.30;;;;;;5016569;28;20065;-66
2023/05/06 02:30:57;;;;;;;10.68;2.10;;;23.60;43.40;;;;;;5021207;28;20124;-64
2023/05/06 02:33:24;;;;;;;14.23;1.88;;;23.50;43.30;;;;;;5017658;28;20089;-67
2023/05/06 02:35:50;;;;;;;14.05;2.45;;;23.30;43.30;;;;;;5015567;28;20105;-67
2023/05/06 02:38:18;;;;;;;9.18;2.95;;;23.30;43.30;;;;;;5022469;28;20149;-68
2023/05/06 02:40:44;;;;;;;13.90;2.00;;;23.30;44.00;;;;;;5027135;28;20076;-62
2023/05/06 02:43:11;;;;;;;11.40;2.13;;;23.00;44.30;;;;;;5024146;28;20139;-64
2023/05/06 02:45:37;;;;;;;7.90;2.05;;;23.00;44.50;;;;;;5021526;28;20492;-65
2023/05/06 02:48:04;;;;;;;10.60;2.42;;;22.90;44.60;;;;;;5018762;28;20084;-64
2023/05/06 02:50:30;;;;;;;14.35;2.75;;;22.80;44.50;;;;;;5020494;28;20212;-66
2023/05/06 02:52:57;;;;;;;10.75;3.10;;;22.70;44.60;;;;;;5010108;28;20568;-68
2023/05/06 02:55:23;;;;;;;12.98;3.30;;;22.70;44.60;;;;;;5026672;28;20077;-69
2023/05/06 02:57:49;;;;;;;8.65;2.45;;;22.70;44.90;;;;;;5025463;28;20556;-67
2023/05/06 03:00:16;;;;;;;11.07;2.88;;;22.60;45.30;;;;;;5021492;28;20402;-70
2023/05/06 03:02:43;;;;;;;9.40;1.60;;;22.60;45.60;;;;;;5029229;28;20077;-68
2023/05/06 03:05:09;;;;;;;9.77;2.50;;;22.40;46.20;;;;;;5019288;28;20108;-65
2023/05/06 03:07:37;;;;;;;10.98;2.33;;;22.30;46.70;;;;;;5025034;28;20206;-68
2023/05/06 03:10:03;;;;;;;9.15;2.15;;;22.20;47.10;;;;;;5021131;28;20211;-66
2023/05/06 03:12:30;;;;;;;11.75;2.40;;;22.10;47.60;;;;;;5017819;28;20595;-67
2023/05/06 03:14:56;;;;;;;10.57;2.20;;;22.10;48.10;;;;;;5029130;28;20595;-65
2023/05/06 03:17:23;;;;;;;11.13;2.30;;;22.00;48.40;;;;;;5024887;28;20074;-65
2023/05/06 03:19:49;;;;;;;6.13;2.00;;;22.00;48.60;;;;;;5027088;28;20074;-62
2023/05/06 03:22:16;;;;;;;7.90;2.38;;;21.80;48.80;;;;;;5026049;28;20199;-67
2023/05/06 03:24:42;;;;;;;6.55;2.20;;;21.70;49.10;;;;;;5024787;28;20444;-65
2023/05/06 03:27:09;;;;;;;9.80;2.20;;;21.70;49.20;;;;;;5023907;28;20183;-66
2023/05/06 03:29:35;;;;;;;13.07;2.25;;;21.60;48.80;;;;;;5029581;28;20080;-62
2023/05/06 03:32:05;;;;;;;32.17;3.15;;;21.60;48.90;;;;;;5014469;28;20100;-68
2023/05/06 03:34:31;;;;;;;23.13;2.58;;;21.60;49.10;;;;;;5029331;28;21067;-71
2023/05/06 03:36:59;;;;;;;16.05;2.05;;;21.50;49.10;;;;;;5025872;28;20079;-68
2023/05/06 03:39:25;;;;;;;13.10;2.25;;;21.50;49.50;;;;;;5020307;28;20112;-67
2023/05/06 03:41:51;;;;;;;32.30;9.23;;;21.40;49.70;;;;;;5018785;28;20073;-69
2023/05/06 03:44:18;;;;;;;16.98;3.03;;;21.40;49.90;;;;;;5020706;28;20073;-69
2023/05/06 03:46:44;;;;;;;14.27;2.92;;;21.30;49.80;;;;;;5018977;28;20155;-65
2023/05/06 03:49:10;;;;;;;26.35;3.40;;;21.30;49.90;;;;;;5017781;28;20080;-69
2023/05/06 03:51:37;;;;;;;22.65;2.85;;;21.00;50.20;;;;;;5021062;28;20623;-68
2023/05/06 03:54:04;;;;;;;20.10;2.85;;;20.90;50.50;;;;;;5021733;28;20159;-67
2023/05/06 03:56:30;;;;;;;27.92;2.92;;;20.90;50.60;;;;;;5027566;28;20600;-66
2023/05/06 03:58:56;;;;;;;21.75;3.10;;;20.80;50.60;;;;;;5025398;28;20175;-64
2023/05/06 04:01:23;;;;;;;21.00;3.20;;;20.80;50.60;;;;;;5018278;28;20085;-64
2023/05/06 04:03:50;;;;;;;17.05;2.90;;;20.80;50.50;;;;;;5022126;28;20406;-64
2023/05/06 04:06:17;;;;;;;23.08;3.10;;;20.80;50.50;;;;;;5017462;28;20156;-62
2023/05/06 04:08:43;;;;;;;23.35;3.30;;;20.80;50.60;;;;;;5017868;28;20069;-67
2023/05/06 04:11:10;;;;;;;18.27;3.15;;;20.70;50.50;;;;;;5021146;28;20077;-62
2023/05/06 04:13:36;;;;;;;22.45;2.90;;;20.80;50.60;;;;;;5022560;28;20065;-63
2023/05/06 04:16:04;;;;;;;17.20;3.50;;;20.70;50.80;;;;;;5018064;28;20122;-63
2023/05/06 04:18:31;;;;;;;17.00;3.13;;;20.70;51.00;;;;;;5020089;28;20153;-65
2023/05/06 04:20:59;;;;;;;14.95;2.78;;;20.70;51.00;;;;;;5025963;28;20096;-61
2023/05/06 04:23:25;;;;;;;23.30;2.65;;;20.70;51.10;;;;;;5017853;28;20533;-63
2023/05/06 04:25:51;;;;;;;20.40;2.75;;;20.60;51.30;;;;;;5018234;28;20077;-63
2023/05/06 04:28:18;;;;;;;10.27;2.22;;;20.60;51.70;;;;;;5020749;28;20091;-64
2023/05/06 04:30:45;;;;;;;12.38;2.40;;;20.50;52.10;;;;;;5017773;28;20084;-63
2023/05/06 04:33:12;;;;;;;11.30;2.30;;;20.40;52.50;;;;;;5016711;28;20195;-64
2023/05/06 04:35:39;;;;;;;12.88;2.00;;;20.40;52.70;;;;;;5014415;28;20108;-64
2023/05/06 04:38:05;;;;;;;15.55;1.63;;;20.30;52.80;;;;;;5020124;28;20130;-62
2023/05/06 04:40:34;;;;;;;9.52;1.80;;;20.20;53.00;;;;;;5019384;28;20160;-64
2023/05/06 04:43:01;;;;;;;10.98;1.75;;;20.10;53.20;;;;;;5015950;28;20547;-64
2023/05/06 04:45:28;;;;;;;7.20;1.77;;;20.10;53.40;;;;;;5015686;28;20105;-67
2023/05/06 04:47:54;;;;;;;11.40;1.65;;;20.00;53.40;;;;;;5019894;28;20093;-65
2023/05/06 04:50:21;;;;;;;13.98;2.42;;;19.90;53.50;;;;;;5021475;28;20530;-63
2023/05/06 04:52:47;;;;;;;9.32;2.47;;;20.00;53.50;;;;;;5016781;28;20184;-64
2023/05/06 04:55:14;;;;;;;6.05;2.00;;;19.90;53.50;;;;;;5020656;28;20429;-65
2023/05/06 04:57:40;;;;;;;11.05;2.20;;;19.90;53.60;;;;;;5019966;28;20139;-66
2023/05/06 05:00:09;;;;;;;11.20;2.47;;;19.90;53.70;;;;;;5014693;28;20073;-67
2023/05/06 05:02:35;;;;;;;8.13;1.83;;;20.00;53.50;;;;;;5015714;28;20096;-64
2023/05/06 05:05:02;;;;;;;14.57;2.10;;;20.00;53.40;;;;;;5019993;28;20191;-64
2023/05/06 05:07:28;;;;;;;9.48;1.73;;;19.90;53.60;;;;;;5017763;28;20069;-63
2023/05/06 05:09:55;;;;;;;7.03;1.90;;;19.90;53.90;;;;;;5015817;28;20080;-65
2023/05/06 05:12:21;;;;;;;10.25;1.88;;;19.80;54.30;;;;;;5017318;28;20088;-65
2023/05/06 05:14:48;;;;;;;7.70;1.85;;;19.70;54.50;;;;;;5019839;28;20164;-65
2023/05/06 05:17:14;;;;;;;12.80;1.70;;;19.60;54.80;;;;;;5017390;28;20577;-62
2023/05/06 05:19:40;;;;;;;7.82;2.40;;;19.50;54.90;;;;;;5012457;28;20087;-67
2023/05/06 05:22:07;;;;;;;11.88;2.00;;;19.50;54.90;;;;;;5018808;28;20504;-68
2023/05/06 05:24:33;;;;;;;8.15;1.67;;;19.40;54.90;;;;;;5025077;28;20126;-69
2023/05/06 05:27:01;;;;;;;8.40;1.20;;;19.30;55.10;;;;;;5019043;28;20105;-71
2023/05/06 05:29:27;;;;;;;10.05;1.77;;;19.30;55.10;;;;;;5019073;28;20508;-69
2023/05/06 05:31:53;;;;;;;5.72;1.48;;;19.20;55.10;;;;;;5013499;28;20094;-68
2023/05/06 05:34:20;;;;;;;6.68;1.83;;;19.20;55.10;;;;;;5017438;28;20583;-72
2023/05/06 05:36:46;;;;;;;7.28;1.67;;;19.20;55.00;;;;;;5019558;28;20112;-67
2023/05/06 05:39:13;;;;;;;11.68;2.10;;;19.20;55.00;;;;;;5023950;28;20551;-67
2023/05/06 05:41:39;;;;;;;4.43;1.40;;;19.20;54.80;;;;;;5027392;28;20072;-62
2023/05/06 05:44:06;;;;;;;6.82;2.08;;;19.20;54.80;;;;;;5017223;28;20579;-61
2023/05/06 05:46:32;;;;;;;4.20;1.48;;;19.20;54.80;;;;;;5027320;28;20076;-63
2023/05/06 05:48:58;;;;;;;7.82;1.70;;;19.20;54.60;;;;;;5016432;28;20088;-62
2023/05/06 05:51:25;;;;;;;8.02;1.70;;;19.20;54.50;;;;;;5025074;28;20084;-64
2023/05/06 05:53:52;;;;;;;10.27;1.52;;;19.20;54.40;;;;;;5015288;28;20184;-65
2023/05/06 05:56:18;;;;;;;6.57;1.30;;;19.10;54.50;;;;;;5017900;28;20058;-66
2023/05/06 05:58:46;;;;;;;3.83;1.20;;;19.10;54.60;;;;;;5017763;28;20072;-62
2023/05/06 06:01:13;;;;;;;5.22;1.15;;;19.00;54.80;;;;;;5016804;28;20105;-63
2023/05/06 06:03:40;;;;;;;7.25;1.45;;;19.00;55.00;;;;;;5017986;28;20092;-63
2023/05/06 06:06:06;;;;;;;7.43;1.40;;;19.00;55.20;;;;;;5016936;28;20105;-63
2023/05/06 06:08:33;;;;;;;13.93;1.90;;;19.00;55.30;;;;;;5013110;28;20062;-63
2023/05/06 06:11:00;;;;;;;4.20;1.30;;;19.00;55.30;;;;;;5015097;28;20073;-63
2023/05/06 06:13:27;;;;;;;9.80;1.40;;;19.00;55.30;;;;;;5021136;28;20145;-64
2023/05/06 06:15:54;;;;;;;31.67;24.48;;;18.90;55.30;;;;;;5027526;28;20529;-62
2023/05/06 06:18:21;;;;;;;27.00;14.68;;;18.90;55.60;;;;;;5024995;28;20105;-61
2023/05/06 06:20:47;;;;;;;23.27;14.75;;;18.90;55.60;;;;;;5022581;28;20433;-64
2023/05/06 06:23:14;;;;;;;7.38;1.45;;;18.80;55.60;;;;;;5021913;28;20188;-64
2023/05/06 06:25:40;;;;;;;6.82;1.13;;;18.70;55.80;;;;;;5022500;28;20551;-69
2023/05/06 06:28:07;;;;;;;10.73;1.67;;;18.70;55.80;;;;;;5020251;28;20073;-65
2023/05/06 06:30:33;;;;;;;7.68;2.03;;;18.60;55.70;;;;;;5018891;28;20069;-64
2023/05/06 06:33:00;;;;;;;5.82;1.50;;;18.70;55.50;;;;;;5024919;28;20096;-64
2023/05/06 06:35:27;;;;;;;7.57;1.30;;;18.70;55.40;;;;;;5021241;28;20105;-64
2023/05/06 06:37:53;;;;;;;8.07;1.30;;;18.70;55.20;;;;;;5024888;28;20386;-62
2023/05/06 06:40:21;;;;;;;13.25;1.40;;;18.70;55.40;;;;;;5025842;28;20069;-65
2023/05/06 06:42:47;;;;;;;8.00;1.15;;;18.60;55.50;;;;;;5025365;28;20073;-65
2023/05/06 06:45:14;;;;;;;4.28;1.35;;;18.60;55.80;;;;;;5024027;28;20089;-64
2023/05/06 06:47:41;;;;;;;5.95;1.30;;;18.50;55.80;;;;;;5025977;28;20104;-64
2023/05/06 06:50:08;;;;;;;2.95;1.00;;;18.50;56.10;;;;;;5023970;28;20080;-62
2023/05/06 06:52:35;;;;;;;4.35;1.50;;;18.50;56.40;;;;;;5024164;28;20238;-62
2023/05/06 06:55:02;;;;;;;7.18;1.10;;;18.40;56.30;;;;;;5024934;28;20109;-61
2023/05/06 06:57:29;;;;;;;6.65;1.02;;;18.40;56.60;;;;;;5023265;28;20096;-65
2023/05/06 06:59:55;;;;;;;7.03;1.00;;;18.20;56.80;;;;;;5024981;28;20105;-67
2023/05/06 07:02:22;;;;;;;5.85;1.13;;;18.20;56.80;;;;;;5024245;28;20085;-64
2023/05/06 07:04:48;;;;;;;6.93;1.30;;;18.20;56.80;;;;;;5022882;28;20089;-63
2023/05/06 07:07:15;;;;;;;7.00;1.52;;;18.20;56.90;;;;;;5021580;28;20117;-63
2023/05/06 07:09:43;;;;;;;2.90;0.90;;;18.20;56.80;;;;;;5023300;28;20074;-64
2023/05/06 07:12:09;;;;;;;4.68;1.13;;;18.20;56.80;;;;;;5024939;28;20090;-69
2023/05/06 07:14:35;;;;;;;2.75;1.17;;;18.20;56.70;;;;;;5027719;28;20067;-63
2023/05/06 07:17:02;;;;;;;8.10;1.23;;;18.10;56.50;;;;;;5023315;28;20124;-64
2023/05/06 07:19:30;;;;;;;7.65;1.20;;;18.10;56.50;;;;;;5023936;28;20119;-64
2023/05/06 07:21:57;;;;;;;8.98;1.20;;;18.20;56.20;;;;;;5026859;28;20078;-65
2023/05/06 07:24:23;;;;;;;4.43;1.10;;;18.20;56.20;;;;;;5024369;28;20083;-64
2023/05/06 07:26:49;;;;;;;2.78;1.02;;;18.10;56.10;;;;;;5025153;28;20089;-64
2023/05/06 07:29:16;;;;;;;12.07;1.27;;;18.10;56.20;;;;;;5024481;28;20434;-62
2023/05/06 07:31:42;;;;;;;7.55;1.02;;;18.10;56.30;;;;;;5024329;28;20169;-64
2023/05/06 07:34:09;;;;;;;9.43;1.52;;;18.10;56.40;;;;;;5024753;28;20093;-67
2023/05/06 07:36:39;;;;;;;13.25;1.30;;;18.10;56.40;;;;;;5021866;28;20168;-64
2023/05/06 07:39:09;;;;;;;10.05;1.50;;;18.10;56.50;;;;;;5028792;28;20065;-63
2023/05/06 07:41:36;;;;;;;10.00;1.58;;;18.10;56.50;;;;;;5026548;28;20105;-62
2023/05/06 07:44:03;;;;;;;6.13;1.30;;;18.00;56.60;;;;;;5021564;28;20125;-64
2023/05/06 07:46:29;;;;;;;9.68;1.50;;;17.90;56.70;;;;;;5021938;28;20085;-64
2023/05/06 07:48:56;;;;;;;4.30;1.30;;;17.90;56.70;;;;;;5016688;28;20545;-62
2023/05/06 07:51:22;;;;;;;7.25;1.27;;;17.90;56.70;;;;;;5022836;28;20081;-64
2023/05/06 07:53:49;;;;;;;4.63;1.10;;;17.90;56.70;;;;;;5023338;28;20170;-65
2023/05/06 07:56:17;;;;;;;5.63;1.20;;;17.90;56.60;;;;;;5024802;28;20483;-64
2023/05/06 07:58:43;;;;;;;9.30;1.67;;;17.90;56.40;;;;;;5025677;28;20066;-64
2023/05/06 08:01:09;;;;;;;10.27;1.95;;;17.90;56.20;;;;;;5017868;28;20128;-63
2023/05/06 08:03:36;;;;;;;7.75;1.20;;;17.90;56.10;;;;;;5019910;28;20077;-64
2023/05/06 08:06:02;;;;;;;8.43;1.52;;;17.90;56.10;;;;;;5021460;28;20131;-63
2023/05/06 08:08:29;;;;;;;6.15;1.60;;;17.90;55.80;;;;;;5025767;28;20108;-65
2023/05/06 08:10:58;;;;;;;5.68;1.10;;;17.90;55.80;;;;;;5024416;28;20088;-63
2023/05/06 08:13:26;;;;;;;6.15;1.10;;;17.90;55.60;;;;;;5022474;28;20090;-64
2023/05/06 08:15:53;;;;;;;6.60;1.50;;;18.00;55.50;;;;;;5020558;28;20561;-64
2023/05/06 08:18:20;;;;;;;19.55;8.10;;;18.00;55.40;;;;;;5020587;28;20553;-65
2023/05/06 08:20:46;;;;;;;23.23;8.95;;;17.90;55.30;;;;;;5024751;28;20556;-64
2023/05/06 08:23:12;;;;;;;17.67;8.02;;;17.90;55.30;;;;;;5020574;28;20516;-65
2023/05/06 08:25:39;;;;;;;27.05;8.60;;;17.90;55.20;;;;;;5021519;28;20065;-65
2023/05/06 08:28:05;;;;;;;12.57;1.55;;;17.90;55.40;;;;;;5025708;28;20538;-63
2023/05/06 08:30:32;;;;;;;14.60;1.60;;;17.90;55.40;;;;;;5024608;28;20079;-63
2023/05/06 08:32:58;;;;;;;8.95;1.30;;;17.90;55.50;;;;;;5024732;28;20091;-63
2023/05/06 08:35:25;;;;;;;14.50;1.77;;;17.80;55.50;;;;;;5019385;28;20199;-65
2023/05/06 08:37:51;;;;;;;24.33;9.27;;;17.80;55.60;;;;;;5020937;28;20126;-63
2023/05/06 08:40:19;;;;;;;14.32;1.77;;;17.80;55.50;;;;;;5023502;28;20105;-64
2023/05/06 08:42:47;;;;;;;20.70;1.70;;;17.80;55.50;;;;;;5023499;28;20130;-65
2023/05/06 08:45:17;;;;;;;94.57;5.35;;;17.80;55.50;;;;;;5019488;28;20131;-67
2023/05/06 08:47:45;;;;;;;20.33;1.80;;;17.80;55.70;;;;;;5022371;28;20156;-65
2023/05/06 08:50:12;;;;;;;14.07;1.63;;;17.80;55.60;;;;;;5012754;28;20172;-61
2023/05/06 08:52:39;;;;;;;3.45;1.13;;;17.80;55.40;;;;;;5022016;28;20087;-64
2023/05/06 08:55:07;;;;;;;8.25;1.60;;;17.60;55.40;;;;;;5023724;28;20144;-65
2023/05/06 08:57:34;;;;;;;23.48;9.43;;;17.60;55.40;;;;;;5026079;28;20217;-64
2023/05/06 09:00:01;;;;;;;10.40;1.40;;;17.50;55.40;;;;;;5023579;28;20088;-64
2023/05/06 09:02:28;;;;;;;8.88;1.10;;;17.60;55.50;;;;;;5018116;28;20097;-65
2023/05/06 09:04:58;;;;;;;8.73;1.67;;;17.50;55.40;;;;;;5020007;28;20073;-64
2023/05/06 09:07:24;;;;;;;11.90;1.33;;;17.50;55.60;;;;;;5021872;28;20078;-66
2023/05/06 09:09:51;;;;;;;6.50;1.25;;;17.50;55.80;;;;;;5024594;28;20073;-63
2023/05/06 09:12:17;;;;;;;9.35;1.40;;;17.50;55.80;;;;;;5022377;28;20553;-64
2023/05/06 09:14:45;;;;;;;6.22;1.20;;;17.40;55.80;;;;;;5022607;28;20073;-66
2023/05/06 09:17:24;;;;;;;6.85;0.90;;;17.40;56.10;;;;;;5023983;28;20499;-65
2023/05/06 09:19:52;;;;;;;10.73;1.33;;;17.30;56.20;;;;;;5023309;28;20153;-63
2023/05/06 09:22:22;;;;;;;5.45;1.83;;;17.30;56.30;;;;;;5020499;28;20080;-63
2023/05/06 09:24:55;;;;;;;10.30;1.40;;;17.30;56.40;;;;;;5007174;28;20441;-65
2023/05/06 09:27:32;;;;;;;4.85;1.02;;;17.20;56.50;;;;;;5017057;28;20109;-64
2023/05/06 09:30:04;;;;;;;6.18;1.30;;;17.20;56.60;;;;;;5019910;28;20081;-64
2023/05/06 09:32:31;;;;;;;6.30;1.27;;;17.20;56.40;;;;;;5003697;28;20094;-64
2023/05/06 09:34:58;;;;;;;3.05;1.05;;;17.20;56.40;;;;;;5018409;28;20577;-64
2023/05/06 09:37:27;;;;;;;7.10;1.33;;;17.20;56.30;;;;;;5022690;28;20447;-63
2023/05/06 09:39:56;;;;;;;6.60;1.08;;;17.20;56.20;;;;;;5015822;28;20461;-63
2023/05/06 09:42:24;;;;;;;3.97;1.25;;;17.10;56.40;;;;;;5023551;28;20139;-64
2023/05/06 09:44:53;;;;;;;4.50;1.10;;;17.20;56.40;;;;;;5021402;28;20560;-65
2023/05/06 09:47:21;;;;;;;5.10;1.35;;;17.20;56.50;;;;;;5024359;28;20142;-63
2023/05/06 09:49:48;;;;;;;5.90;1.48;;;17.20;56.50;;;;;;5025190;28;20067;-65
2023/05/06 09:52:15;;;;;;;6.40;0.98;;;17.20;56.50;;;;;;5027209;28;20086;-64
2023/05/06 09:54:41;;;;;;;3.13;1.00;;;17.20;56.60;;;;;;5026199;28;20077;-66
2023/05/06 09:57:12;;;;;;;3.65;1.17;;;17.10;56.50;;;;;;5024659;28;20121;-65
2023/05/06 09:59:40;;;;;;;5.47;0.95;;;17.10;56.40;;;;;;5025358;28;20071;-65
2023/05/06 10:02:07;;;;;;;3.15;0.95;;;17.00;56.50;;;;;;5025614;28;20089;-62
2023/05/06 10:04:36;;;;;;;3.42;1.05;;;17.00;56.60;;;;;;5022590;28;20268;-64
2023/05/06 10:07:03;;;;;;;3.17;0.90;;;16.90;56.70;;;;;;5023027;28;20546;-66
2023/05/06 10:09:30;;;;;;;3.55;0.90;;;17.00;56.50;;;;;;5021288;28;20499;-64
2023/05/06 10:11:59;;;;;;;4.90;0.90;;;17.00;56.30;;;;;;5025519;28;20144;-63
2023/05/06 10:14:25;;;;;;;22.67;14.73;;;17.00;56.50;;;;;;5024812;28;20070;-65
2023/05/06 10:16:53;;;;;;;22.20;15.20;;;17.00;56.40;;;;;;5024063;28;20075;-62
2023/05/06 14:31:37;;;;;;;8.07;1.67;;;17.30;51.90;;;;;;5018394;28;20135;-63
2023/05/06 14:34:04;;;;;;;11.18;2.30;;;17.40;51.60;;;;;;5021099;28;20173;-66
2023/05/06 14:36:30;;;;;;;9.52;1.90;;;17.50;52.40;;;;;;5017854;28;20089;-65
2023/05/06 14:38:56;;;;;;;8.00;1.85;;;17.70;52.20;;;;;;5019478;28;20097;-65
2023/05/06 14:41:23;;;;;;;9.00;1.65;;;17.90;50.30;;;;;;5021841;28;20541;-66
2023/05/06 14:43:49;;;;;;;8.38;1.80;;;18.10;50.50;;;;;;5020920;28;20440;-64
2023/05/06 14:46:16;;;;;;;7.18;1.92;;;18.40;49.90;;;;;;5016686;28;20093;-64
2023/05/06 14:48:44;;;;;;;7.50;1.85;;;18.70;49.40;;;;;;5023128;28;20150;-65
2023/05/06 14:51:10;;;;;;;6.80;1.75;;;19.00;48.30;;;;;;5016043;28;20112;-66
2023/05/06 14:53:36;;;;;;;3.55;1.30;;;19.10;48.00;;;;;;5025664;28;20533;-64
2023/05/06 14:56:03;;;;;;;7.03;1.13;;;19.40;47.60;;;;;;5019883;28;20562;-66
2023/05/06 14:58:29;;;;;;;4.00;1.23;;;19.40;47.20;;;;;;5023121;28;20134;-64
2023/05/06 15:00:56;;;;;;;4.80;1.15;;;19.50;46.90;;;;;;5014500;28;20153;-65
2023/05/06 15:03:22;;;;;;;10.23;1.67;;;19.60;47.00;;;;;;5020558;28;20077;-64
2023/05/06 15:05:49;;;;;;;4.03;1.77;;;19.70;48.10;;;;;;5020439;28;20533;-64
2023/05/06 15:08:16;;;;;;;11.30;1.50;;;19.80;48.50;;;;;;5018437;28;20444;-64
2023/05/06 15:10:43;;;;;;;7.88;1.10;;;19.80;48.20;;;;;;5020418;28;20077;-62
2023/05/06 15:13:09;;;;;;;5.78;1.20;;;19.80;46.90;;;;;;5017871;28;20085;-65
2023/05/06 15:15:36;;;;;;;11.05;1.60;;;19.80;46.30;;;;;;5022865;28;20073;-65
2023/05/06 15:18:02;;;;;;;8.60;1.52;;;19.90;46.20;;;;;;5020469;28;20077;-65
2023/05/06 15:20:28;;;;;;;4.25;1.13;;;20.00;45.80;;;;;;5019116;28;20096;-66
2023/05/06 15:22:55;;;;;;;3.92;1.02;;;20.00;43.80;;;;;;5027053;28;20549;-65
2023/05/06 15:25:21;;;;;;;3.83;1.33;;;20.20;42.90;;;;;;5026590;28;20073;-63
2023/05/06 15:27:48;;;;;;;5.93;1.38;;;20.30;42.40;;;;;;5023692;28;20074;-65
2023/05/06 15:30:14;;;;;;;5.85;1.08;;;20.20;42.70;;;;;;5019262;28;20074;-65
2023/05/06 15:32:40;;;;;;;6.43;1.42;;;20.40;43.10;;;;;;5027800;28;20119;-66
2023/05/06 15:35:07;;;;;;;7.47;1.40;;;20.50;43.40;;;;;;5019315;28;20200;-64
2023/05/06 15:37:34;;;;;;;12.32;1.90;;;20.50;44.10;;;;;;5027734;28;20073;-64
2023/05/06 15:40:00;;;;;;;9.13;1.98;;;20.60;44.30;;;;;;5017918;28;20068;-62
2023/05/06 15:42:27;;;;;;;12.05;2.53;;;20.70;44.60;;;;;;5004766;28;20099;-61
2023/05/06 15:44:53;;;;;;;10.82;9.25;;;20.90;44.50;;;;;;5018949;28;20090;-63
2023/05/06 15:47:20;;;;;;;14.60;7.45;;;21.20;44.50;;;;;;5012701;28;20099;-64
2023/05/06 15:49:46;;;;;;;9.55;6.65;;;21.20;43.90;;;;;;5023385;28;20100;-63
2023/05/06 15:52:13;;;;;;;9.45;2.53;;;21.30;43.70;;;;;;5021472;28;20127;-63
2023/05/06 15:54:39;;;;;;;16.58;2.70;;;21.50;43.90;;;;;;5022110;28;20065;-62
2023/05/06 15:57:05;;;;;;;5.22;1.80;;;21.70;43.90;;;;;;5017843;28;20097;-66
2023/05/06 15:59:32;;;;;;;9.40;2.30;;;21.70;43.00;;;;;;5020557;28;20079;-64
2023/05/06 16:01:58;;;;;;;13.27;2.08;;;21.60;43.50;;;;;;5019842;28;20066;-62
2023/05/06 16:04:24;;;;;;;14.13;2.53;;;21.70;42.90;;;;;;5021153;28;20069;-64
2023/05/06 16:06:51;;;;;;;11.30;2.65;;;21.70;43.20;;;;;;5020657;28;20455;-65
2023/05/06 16:09:17;;;;;;;14.13;2.35;;;21.80;44.00;;;;;;5026870;28;20095;-67
2023/05/06 16:11:44;;;;;;;10.15;2.80;;;22.10;42.50;;;;;;5019223;28;20073;-66
2023/05/06 16:14:10;;;;;;;9.48;2.08;;;22.30;42.20;;;;;;5019443;28;20457;-66
2023/05/06 16:16:36;;;;;;;16.60;2.63;;;22.40;40.90;;;;;;5021804;28;20135;-66
2023/05/06 16:19:03;;;;;;;4.15;1.70;;;22.30;41.10;;;;;;5025873;28;20077;-64
2023/05/06 16:21:29;;;;;;;12.57;2.20;;;22.30;41.70;;;;;;5021544;28;20081;-64
2023/05/06 16:23:56;;;;;;;11.00;1.90;;;22.30;41.60;;;;;;5024225;28;20176;-63
2023/05/06 16:26:23;;;;;;;11.77;1.50;;;22.60;41.00;;;;;;5022204;28;20069;-66
2023/05/06 16:28:49;;;;;;;7.47;1.80;;;22.80;40.50;;;;;;5017402;28;20553;-64
2023/05/06 16:31:16;;;;;;;11.02;2.05;;;23.10;39.40;;;;;;5022238;28;20123;-64
2023/05/06 16:33:43;;;;;;;8.15;2.00;;;23.20;39.20;;;;;;5021300;28;20147;-65
2023/05/06 16:36:11;;;;;;;13.00;2.20;;;23.40;39.20;;;;;;5015732;28;20459;-63
2023/05/06 16:38:37;;;;;;;7.93;1.73;;;23.50;39.40;;;;;;5021929;28;20072;-60
2023/05/06 16:41:04;;;;;;;16.65;2.17;;;23.80;37.90;;;;;;5017805;28;20114;-61
2023/05/06 16:43:30;;;;;;;9.02;1.45;;;23.50;37.40;;;;;;5019411;28;20484;-61
2023/05/06 16:45:57;;;;;;;14.45;2.40;;;23.70;37.40;;;;;;5020491;28;20061;-62
2023/05/06 16:48:23;;;;;;;15.75;2.45;;;23.70;37.40;;;;;;5022116;28;20090;-63
2023/05/06 16:50:50;;;;;;;12.48;1.92;;;23.70;38.00;;;;;;5018939;28;20076;-61
2023/05/06 16:53:17;;;;;;;8.68;2.00;;;23.80;38.50;;;;;;5019169;28;20173;-65
2023/05/06 16:55:48;;;;;;;7.63;1.80;;;23.90;38.40;;;;;;5020815;28;20072;-61